^^
Meteo Knjazevac Station Historical Data
Daily Summary for August 2, 2021 Units:  English    Metric   Both
Daily Weekly Monthly Yearly Custom
  High: Low: Average:
Temperature: 70.2 °F 47.3 °F 59.2 °F
Dew Point: 57.7 °F 46.2 °F 51.8 °F
Humidity: 99% 54% 79%
Wind Speed: 9mph 0mph 3mph
Wind Gust: 20mph - -
Wind- - SSW
Pressure: 30.19 in 30.11 in -
Precipitation: 0.00 in    
Historical Graphs
 
 
Tabular Data for August 2, 2021
Time Temperature Dew Point Pressure Wind Wind Speed Wind Gust Humidity Rainfall Rate (Hourly) solar Conditions
00:00 51.8 °F 51.5 °F 30.11 in ESE 3 mph 7 mph 99% 0.00 in 0 W/m2
00:10 51.7 °F 51.5 °F 30.11 in SE 2 mph 5 mph 99% 0.00 in 0 W/m2
00:20 51.6 °F 51.3 °F 30.11 in SE 1 mph 4 mph 99% 0.00 in 0 W/m2
00:30 51.6 °F 51.3 °F 30.11 in SE 1 mph 5 mph 99% 0.00 in 0 W/m2
00:40 51.4 °F 51.2 °F 30.11 in SE 3 mph 6 mph 99% 0.00 in 0 W/m2
00:50 51.4 °F 51.2 °F 30.11 in SE 1 mph 5 mph 99% 0.00 in 0 W/m2
01:00 51.4 °F 51.2 °F 30.11 in SE 3 mph 6 mph 99% 0.00 in 0 W/m2
01:10 51.4 °F 51.2 °F 30.11 in ESE 1 mph 5 mph 99% 0.00 in 0 W/m2
01:20 51.4 °F 51.2 °F 30.11 in East 2 mph 4 mph 99% 0.00 in 0 W/m2
01:30 51.4 °F 51.2 °F 30.11 in East 1 mph 5 mph 99% 0.00 in 0 W/m2
01:40 51.4 °F 51.2 °F 30.11 in East 2 mph 5 mph 99% 0.00 in 0 W/m2
01:50 51.4 °F 51.2 °F 30.11 in ESE 1 mph 5 mph 99% 0.00 in 0 W/m2
02:00 51.3 °F 51 °F 30.11 in ESE 2 mph 5 mph 99% 0.00 in 0 W/m2
02:10 51.3 °F 51 °F 30.11 in SE 2 mph 4 mph 99% 0.00 in 0 W/m2
02:20 51.1 °F 50.8 °F 30.11 in ESE 1 mph 5 mph 99% 0.00 in 0 W/m2
02:30 51.1 °F 50.8 °F 30.11 in SE 1 mph 5 mph 99% 0.00 in 0 W/m2
02:40 51.1 °F 50.8 °F 30.11 in SE 2 mph 5 mph 99% 0.00 in 0 W/m2
02:50 51.1 °F 50.8 °F 30.11 in SE 1 mph 3 mph 99% 0.00 in 0 W/m2
03:00 50.9 °F 50.6 °F 30.12 in Calm   3 mph 99% 0.00 in 0 W/m2
03:10 50.7 °F 50.4 °F 30.12 in Calm   2 mph 99% 0.00 in 0 W/m2
03:20 50.5 °F 50.3 °F 30.12 in Calm   2 mph 99% 0.00 in 0 W/m2
03:30 50.4 °F 50.1 °F 30.12 in Calm   2 mph 99% 0.00 in 0 W/m2
03:40 50.2 °F 49.9 °F 30.11 in Calm   6 mph 99% 0.00 in 0 W/m2
03:50 50 °F 49.7 °F 30.12 in Calm   3 mph 99% 0.00 in 0 W/m2
04:00 49.6 °F 49.4 °F 30.12 in SW 1 mph 2 mph 99% 0.00 in 0 W/m2
04:10 49.5 °F 49.2 °F 30.12 in Calm   2 mph 99% 0.00 in 0 W/m2
04:20 49.1 °F 48.8 °F 30.12 in SE 2 mph 3 mph 99% 0.00 in 0 W/m2
04:30 48.9 °F 48.7 °F 30.12 in Calm   4 mph 99% 0.00 in 0 W/m2
04:40 48.6 °F 48.3 °F 30.12 in SW 1 mph 2 mph 99% 0.00 in 0 W/m2
04:50 48.4 °F 48.1 °F 30.13 in West 1 mph 2 mph 99% 0.00 in 0 W/m2
05:00 48 °F 47.8 °F 30.13 in SSW 1 mph 3 mph 99% 0.00 in 6 W/m2
05:10 47.8 °F 47.6 °F 30.13 in Calm   3 mph 99% 0.00 in 13 W/m2
05:20 47.7 °F 47.4 °F 30.13 in North 1 mph 2 mph 99% 0.00 in 23 W/m2
05:30 47.5 °F 47.2 °F 30.13 in Calm   2 mph 99% 0.00 in 34 W/m2
05:40 47.3 °F 47 °F 30.13 in Calm   1 mph 99% 0.00 in 43 W/m2
05:50 47.3 °F 47 °F 30.14 in East 2 mph 4 mph 99% 0.00 in 74 W/m2
06:00 47.5 °F 47.2 °F 30.14 in East 2 mph 4 mph 99% 0.00 in 94 W/m2
06:10 47.7 °F 47.4 °F 30.14 in Calm   3 mph 99% 0.00 in 119 W/m2
06:20 48 °F 47.7 °F 30.14 in SE 2 mph 4 mph 99% 0.00 in 146 W/m2
06:30 48.4 °F 48.1 °F 30.15 in SSE 1 mph 5 mph 99% 0.00 in 173 W/m2
06:40 48.6 °F 48.3 °F 30.15 in East 1 mph 5 mph 99% 0.00 in 165 W/m2
06:50 49.1 °F 48.8 °F 30.15 in ESE 3 mph 7 mph 99% 0.00 in 189 W/m2
07:00 49.6 °F 49.4 °F 30.15 in East 3 mph 6 mph 99% 0.00 in 225 W/m2
07:10 50.2 °F 49.9 °F 30.15 in ESE 2 mph 6 mph 99% 0.00 in 260 W/m2
07:20 50.5 °F 50.3 °F 30.15 in SE 1 mph 5 mph 99% 0.00 in 305 W/m2
07:30 51.2 °F 51 °F 30.15 in SE 3 mph 5 mph 99% 0.00 in 344 W/m2
07:40 51.8 °F 51.5 °F 30.15 in ESE 5 mph 8 mph 99% 0.00 in 383 W/m2
07:50 52.5 °F 52.2 °F 30.15 in ESE 5 mph 7 mph 99% 0.00 in 425 W/m2
08:00 53.2 °F 52.9 °F 30.15 in ESE 3 mph 7 mph 99% 0.00 in 455 W/m2
08:10 53.9 °F 53.4 °F 30.15 in SE 2 mph 7 mph 98% 0.00 in 498 W/m2
08:20 54.5 °F 53.4 °F 30.15 in SE 3 mph 7 mph 96% 0.00 in 535 W/m2
08:30 55.2 °F 54.1 °F 30.15 in SE 2 mph 6 mph 96% 0.00 in 569 W/m2
08:40 56.1 °F 54.4 °F 30.15 in SSE 2 mph 8 mph 94% 0.00 in 604 W/m2
09:00 59 °F 56.4 °F 30.15 in SE 3 mph 7 mph 91% 0.00 in 666 W/m2
09:10 60.3 °F 56.1 °F 30.15 in SSE 3 mph 6 mph 86% 0.00 in 695 W/m2
09:20 61.5 °F 56.9 °F 30.15 in SE 3 mph 6 mph 85% 0.00 in 723 W/m2
09:30 62.4 °F 56.5 °F 30.15 in Calm   7 mph 81% 0.00 in 748 W/m2
09:40 63.3 °F 57.4 °F 30.15 in Calm   7 mph 81% 0.00 in 772 W/m2
09:50 64.2 °F 57.2 °F 30.15 in South 1 mph 6 mph 78% 0.00 in 794 W/m2
10:00 64.9 °F 56.8 °F 30.15 in SE 3 mph 7 mph 75% 0.00 in 815 W/m2
10:10 65.8 °F 57.7 °F 30.14 in East 3 mph 5 mph 75% 0.00 in 318 W/m2
10:20 65.1 °F 56.6 °F 30.14 in East 1 mph 6 mph 74% 0.00 in 236 W/m2
10:30 64.8 °F 55.9 °F 30.15 in WNW 2 mph 6 mph 73% 0.00 in 871 W/m2
10:40 64.9 °F 55.7 °F 30.14 in NNE 1 mph 6 mph 72% 0.00 in 315 W/m2
10:50 65.3 °F 56.8 °F 30.14 in NNW 1 mph 5 mph 74% 0.00 in 258 W/m2
11:00 64.9 °F 56.1 °F 30.14 in West 6 mph 9 mph 73% 0.00 in 288 W/m2
11:10 64.6 °F 55.7 °F 30.14 in West 3 mph 9 mph 73% 0.00 in 144 W/m2
11:20 64.2 °F 55.4 °F 30.14 in WNW 3 mph 10 mph 73% 0.00 in 292 W/m2
11:30 64.9 °F 56.1 °F 30.14 in West 7 mph 13 mph 73% 0.00 in 921 W/m2
11:40 65.7 °F 56.4 °F 30.14 in WNW 7 mph 15 mph 72% 0.00 in 377 W/m2
11:50 65.5 °F 56.2 °F 30.14 in West 3 mph 12 mph 72% 0.00 in 409 W/m2
12:20 66.5 °F 55.7 °F 30.14 in West 5 mph 13 mph 68% 0.00 in 403 W/m2
12:30 67.1 °F 54.9 °F 30.14 in West 7 mph 13 mph 65% 0.00 in 503 W/m2
12:40 67.8 °F 55.6 °F 30.14 in West 8 mph 14 mph 65% 0.00 in 584 W/m2
12:50 68.2 °F 55.5 °F 30.14 in West 7 mph 13 mph 64% 0.00 in 748 W/m2
13:00 68.5 °F 55 °F 30.14 in West 8 mph 13 mph 62% 0.00 in 963 W/m2
13:10 68.4 °F 53.9 °F 30.14 in West 7 mph 13 mph 60% 0.00 in 543 W/m2
13:20 68.9 °F 54 °F 30.14 in WNW 6 mph 17 mph 59% 0.00 in 949 W/m2
13:30 69.4 °F 54.5 °F 30.14 in West 7 mph 16 mph 59% 0.00 in 940 W/m2
13:40 70 °F 55 °F 30.13 in West 7 mph 18 mph 59% 0.00 in 930 W/m2
13:50 69.6 °F 53.7 °F 30.14 in WNW 9 mph 20 mph 57% 0.00 in 918 W/m2
14:00 69.8 °F 53.9 °F 30.14 in West 8 mph 16 mph 57% 0.00 in 262 W/m2
14:10 69.1 °F 53.2 °F 30.14 in West 8 mph 14 mph 57% 0.00 in 891 W/m2
14:20 69.4 °F 53.5 °F 30.13 in West 7 mph 14 mph 57% 0.00 in 216 W/m2
14:30 68.7 °F 52.9 °F 30.13 in West 6 mph 17 mph 57% 0.00 in 230 W/m2
14:40 68.7 °F 53.3 °F 30.13 in West 6 mph 14 mph 58% 0.00 in 839 W/m2
14:50 69.4 °F 52.1 °F 30.13 in West 9 mph 17 mph 54% 0.00 in 196 W/m2
15:00 69.1 °F 52.2 °F 30.14 in West 7 mph 16 mph 55% 0.00 in 799 W/m2
15:10 69.1 °F 53.2 °F 30.14 in West 8 mph 15 mph 57% 0.00 in 182 W/m2
15:20 68.7 °F 53.4 °F 30.14 in West 7 mph 13 mph 58% 0.00 in 754 W/m2
15:30 69.4 °F 53.5 °F 30.14 in West 5 mph 13 mph 57% 0.00 in 230 W/m2
15:40 68.7 °F 53.3 °F 30.14 in WNW 5 mph 13 mph 58% 0.00 in 168 W/m2
15:50 68.2 °F 52.4 °F 30.14 in WNW 3 mph 10 mph 57% 0.00 in 217 W/m2
16:00 68 °F 52.2 °F 30.14 in West 8 mph 13 mph 57% 0.00 in 191 W/m2
16:10 68.2 °F 52.8 °F 30.14 in West 5 mph 12 mph 58% 0.00 in 624 W/m2
16:20 68.2 °F 52.8 °F 30.14 in West 3 mph 8 mph 58% 0.00 in 213 W/m2
16:30 68.7 °F 52.9 °F 30.14 in West 7 mph 14 mph 57% 0.00 in 198 W/m2
16:40 69.1 °F 53.7 °F 30.14 in West 3 mph 14 mph 58% 0.00 in 538 W/m2
16:50 69.1 °F 52.2 °F 30.14 in WNW 8 mph 16 mph 55% 0.00 in 304 W/m2
17:00 68.7 °F 52.9 °F 30.14 in WNW 5 mph 14 mph 57% 0.00 in 478 W/m2
17:10 69.6 °F 53.7 °F 30.14 in West 7 mph 12 mph 57% 0.00 in 220 W/m2
17:20 69.3 °F 52.4 °F 30.14 in West 6 mph 13 mph 55% 0.00 in 184 W/m2
17:30 68.9 °F 52.1 °F 30.14 in West 9 mph 14 mph 55% 0.00 in 155 W/m2
17:40 69.1 °F 51.7 °F 30.14 in West 7 mph 14 mph 54% 0.00 in 355 W/m2
17:50 69.6 °F 52.2 °F 30.13 in West 8 mph 15 mph 54% 0.00 in 325 W/m2
18:00 70.2 °F 52.7 °F 30.14 in WNW 6 mph 14 mph 54% 0.00 in 294 W/m2
18:10 70.2 °F 52.7 °F 30.14 in West 6 mph 14 mph 54% 0.00 in 264 W/m2
18:20 70 °F 52.6 °F 30.14 in West 5 mph 12 mph 54% 0.00 in 232 W/m2
18:30 70 °F 52.6 °F 30.14 in WNW 6 mph 12 mph 54% 0.00 in 196 W/m2
18:40 69.8 °F 52.9 °F 30.14 in West 3 mph 8 mph 55% 0.00 in 167 W/m2
18:50 69.4 °F 52.1 °F 30.14 in WNW 6 mph 12 mph 54% 0.00 in 136 W/m2
19:00 69.2 °F 52.4 °F 30.15 in WNW 3 mph 7 mph 55% 0.00 in 108 W/m2
19:10 68.7 °F 52.9 °F 30.15 in WNW 1 mph 6 mph 57% 0.00 in 50 W/m2
19:20 68.2 °F 53.7 °F 30.15 in WNW 1 mph 3 mph 60% 0.00 in 50 W/m2
19:30 67.5 °F 52.6 °F 30.15 in West 1 mph 5 mph 59% 0.00 in 37 W/m2
19:40 66.7 °F 52.4 °F 30.15 in West 1 mph 5 mph 60% 0.00 in 25 W/m2
19:50 65.8 °F 51.5 °F 30.16 in West 2 mph 4 mph 60% 0.00 in 14 W/m2
20:00 64.8 °F 51.4 °F 30.16 in West 2 mph 5 mph 62% 0.00 in 6 W/m2
20:10 64 °F 52 °F 30.16 in WSW 2 mph 5 mph 65% 0.00 in 0 W/m2
20:20 63 °F 52.2 °F 30.16 in West 2 mph 4 mph 68% 0.00 in 0 W/m2
20:30 61.9 °F 51.2 °F 30.16 in West 3 mph 5 mph 68% 0.00 in 0 W/m2
20:40 61 °F 51.1 °F 30.17 in WSW 2 mph 5 mph 70% 0.00 in 0 W/m2
20:50 60.1 °F 51 °F 30.17 in WSW 2 mph 5 mph 72% 0.00 in 0 W/m2
21:00 59.3 °F 51 °F 30.17 in Calm   2 mph 74% 0.00 in 0 W/m2
21:10 58.4 °F 50.5 °F 30.17 in Calm   2 mph 75% 0.00 in 0 W/m2
21:20 57.7 °F 49.9 °F 30.18 in NNE 2 mph 4 mph 75% 0.00 in 0 W/m2
21:30 57.2 °F 50.1 °F 30.18 in Calm   3 mph 77% 0.00 in 0 W/m2
21:40 56.7 °F 49.9 °F 30.18 in WSW 1 mph 2 mph 78% 0.00 in 0 W/m2
21:50 55.9 °F 49.8 °F 30.18 in West 1 mph 2 mph 80% 0.00 in 0 W/m2
22:00 55.2 °F 49.5 °F 30.19 in WNW 1 mph 2 mph 81% 0.00 in 0 W/m2
22:10 54.8 °F 48.8 °F 30.19 in WNW 2 mph 3 mph 80% 0.00 in 0 W/m2
22:20 54.3 °F 48.3 °F 30.19 in Calm   3 mph 80% 0.00 in 0 W/m2
22:30 53.8 °F 47.8 °F 30.19 in Calm   3 mph 80% 0.00 in 0 W/m2
22:40 53.2 °F 47.5 °F 30.19 in SE 1 mph 4 mph 81% 0.00 in 0 W/m2
22:50 52.7 °F 47 °F 30.19 in SSE 1 mph 4 mph 81% 0.00 in 0 W/m2
23:00 52.3 °F 47.3 °F 30.19 in SSE 1 mph 2 mph 83% 0.00 in 0 W/m2
23:10 52 °F 47.3 °F 30.19 in Calm   1 mph 84% 0.00 in 0 W/m2
23:20 51.6 °F 47.3 °F 30.19 in Calm   2 mph 85% 0.00 in 0 W/m2
23:30 51.3 °F 46.9 °F 30.19 in Calm   2 mph 85% 0.00 in 0 W/m2
23:40 51 °F 47 °F 30.19 in SW 1 mph 2 mph 86% 0.00 in 0 W/m2
23:50 50.5 °F 46.2 °F 30.19 in SW 2 mph 3 mph 85% 0.00 in 0 W/m2
Knjazevac, Serbia
Compliments of Weather Underground - 2 mb